Time;durP1;ratioP1;P1;durP2;ratioP2;P2;SDS_P1;SDS_P2;PMS_P1;PMS_P2;Temp;Humidity;BMP_temperature;BMP_pressure;BME280_temperature;BME280_humidity;BME280_pressure;Samples;Min_cycle;Max_cycle;Signal;HPM_P1;HPM_P2
2023/04/29 00:01:28;;;;;;;11.05;9.82;;;;;;;11.38;78.69;100365.63;7393862;19;20015;-68
2023/04/29 00:03:57;;;;;;;14.38;9.70;;;;;;;11.37;78.81;100369.13;7391623;19;20018;-68
2023/04/29 00:06:25;;;;;;;12.05;9.85;;;;;;;11.35;78.81;100369.19;7393792;19;20011;-68
2023/04/29 00:08:54;;;;;;;10.13;9.10;;;;;;;11.34;78.73;100369.25;7392121;19;20007;-68
2023/04/29 00:11:22;;;;;;;10.90;9.80;;;;;;;11.34;78.98;100361.38;7394956;19;20021;-68
2023/04/29 00:13:53;;;;;;;13.80;9.70;;;;;;;11.33;78.94;100360.50;7399179;19;20022;-67
2023/04/29 00:16:22;;;;;;;10.57;9.35;;;;;;;11.33;79.14;100362.28;7400527;19;20015;-69
2023/04/29 00:18:50;;;;;;;12.23;10.32;;;;;;;11.31;79.05;100359.69;7400857;19;20015;-68
2023/04/29 00:21:19;;;;;;;12.55;9.95;;;;;;;11.30;79.22;100360.59;7400320;19;20027;-68
2023/04/29 00:23:48;;;;;;;13.32;10.20;;;;;;;11.28;79.27;100351.91;7397982;19;20018;-68
2023/04/29 00:26:16;;;;;;;11.98;10.10;;;;;;;11.26;79.48;100353.72;7398047;19;20014;-69
2023/04/29 00:28:45;;;;;;;12.48;10.40;;;;;;;11.24;79.66;100343.25;7400129;19;20510;-67
2023/04/29 00:31:16;;;;;;;11.57;10.38;;;;;;;11.24;79.80;100343.25;7400062;19;20019;-70
2023/04/29 00:33:44;;;;;;;13.25;10.18;;;;;;;11.24;79.73;100342.41;7399018;19;20371;-67
2023/04/29 00:36:13;;;;;;;11.68;9.40;;;;;;;11.24;79.80;100351.13;7400004;19;20086;-68
2023/04/29 00:38:42;;;;;;;12.45;9.63;;;;;;;11.24;79.87;100351.13;7397571;19;20035;-70
2023/04/29 00:41:10;;;;;;;11.65;10.43;;;;;;;11.24;79.80;100356.38;7399799;19;20086;-69
2023/04/29 00:43:39;;;;;;;13.77;11.02;;;;;;;11.24;79.81;100352.91;7398666;19;20035;-70
2023/04/29 00:46:09;;;;;;;11.90;10.70;;;;;;;11.25;79.98;100354.63;7399921;19;20027;-69
2023/04/29 00:48:40;;;;;;;13.23;10.48;;;;;;;11.24;80.14;100352.91;7397547;19;20047;-69
2023/04/29 00:51:09;;;;;;;12.88;11.50;;;;;;;11.24;80.19;100351.13;7399469;19;20069;-69
2023/04/29 00:53:38;;;;;;;12.20;10.82;;;;;;;11.24;80.33;100350.28;7398216;19;20077;-69
2023/04/29 00:56:09;;;;;;;12.85;11.60;;;;;;;11.23;80.65;100343.31;7399590;19;20077;-69
2023/04/29 00:58:38;;;;;;;15.38;11.25;;;;;;;11.24;80.70;100353.75;7397221;19;20478;-69
2023/04/29 01:01:07;;;;;;;12.93;11.23;;;;;;;11.23;80.90;100352.06;7399388;19;20014;-69
2023/04/29 01:03:35;;;;;;;11.60;10.00;;;;;;;11.22;81.03;100352.09;7397706;19;20015;-69
2023/04/29 01:06:16;;;;;;;12.93;11.30;;;;;;;11.24;81.01;100358.16;7399271;19;20035;-69
2023/04/29 01:08:58;;;;;;;14.25;11.18;;;;;;;11.22;81.23;100352.97;7398029;19;20027;-69
2023/04/29 01:11:32;;;;;;;12.90;11.07;;;;;;;11.24;81.11;100360.78;7396814;19;20023;-70
2023/04/29 01:14:02;;;;;;;14.68;11.27;;;;;;;11.25;81.25;100360.72;7398242;19;20031;-68
2023/04/29 01:16:35;;;;;;;12.98;11.70;;;;;;;11.23;81.33;100352.06;7398911;19;20081;-68
2023/04/29 01:19:08;;;;;;;14.20;11.07;;;;;;;11.23;81.61;100361.69;7396865;19;20018;-68
2023/04/29 01:21:50;;;;;;;14.93;12.60;;;;;;;11.23;81.78;100359.94;7397064;19;20014;-68
2023/04/29 01:24:21;;;;;;;13.15;11.75;;;;;;;11.22;81.82;100358.22;7393857;19;20019;-69
2023/04/29 01:26:57;;;;;;;13.35;11.80;;;;;;;11.20;81.96;100349.50;7398161;19;20014;-69
2023/04/29 01:29:35;;;;;;;13.98;11.38;;;;;;;11.18;82.15;100356.56;7398904;19;20022;-68
2023/04/29 01:32:07;;;;;;;13.07;11.65;;;;;;;11.15;82.36;100351.44;7396411;19;20424;-68
2023/04/29 01:34:44;;;;;;;13.00;11.68;;;;;;;11.12;82.82;100359.41;7396379;19;20025;-69
2023/04/29 01:37:20;;;;;;;13.90;12.50;;;;;;;11.07;83.02;100358.69;7397465;19;20518;-68
2023/04/29 01:39:59;;;;;;;14.00;12.60;;;;;;;11.04;83.38;100353.50;7396567;19;20031;-68
2023/04/29 01:42:36;;;;;;;15.43;12.73;;;;;;;11.00;83.50;100359.75;7398216;19;20026;-68
2023/04/29 01:45:09;;;;;;;13.15;11.85;;;;;;;10.97;83.61;100362.47;7398429;19;20018;-69
2023/04/29 01:47:39;;;;;;;13.82;12.40;;;;;;;10.95;83.64;100361.66;7397479;19;20482;-68
2023/04/29 01:50:09;;;;;;;16.48;13.32;;;;;;;10.94;84.12;100357.31;7398250;19;20015;-65
2023/04/29 01:52:38;;;;;;;15.98;13.32;;;;;;;10.91;84.05;100360.91;7397243;19;20023;-66
2023/04/29 01:55:10;;;;;;;16.17;12.38;;;;;;;10.90;84.59;100360.00;7397517;19;20006;-68
2023/04/29 01:57:38;;;;;;;16.17;13.35;;;;;;;10.84;84.64;100354.09;7395998;19;20028;-69
2023/04/29 02:00:09;;;;;;;15.77;13.10;;;;;;;10.87;85.04;100369.78;7397423;19;20022;-68
2023/04/29 02:02:37;;;;;;;15.05;13.48;;;;;;;10.84;85.12;100361.97;7397326;19;20034;-69
2023/04/29 02:05:06;;;;;;;15.95;14.00;;;;;;;10.83;85.14;100355.88;7397215;19;20022;-69
2023/04/29 02:07:34;;;;;;;16.58;14.88;;;;;;;10.82;85.40;100350.69;7396785;19;20018;-69
2023/04/29 02:10:03;;;;;;;15.00;13.50;;;;;;;10.82;85.49;100359.41;7395428;19;20010;-69
2023/04/29 02:12:34;;;;;;;15.38;13.80;;;;;;;10.81;85.69;100364.69;7395181;19;20078;-68
2023/04/29 02:15:03;;;;;;;16.73;14.93;;;;;;;10.80;85.78;100358.56;7395614;19;20028;-68
2023/04/29 02:17:31;;;;;;;15.98;14.32;;;;;;;10.78;85.83;100363.03;7396030;19;20376;-68
2023/04/29 02:20:00;;;;;;;20.60;15.55;;;;;;;10.78;86.00;100365.66;7396709;19;20018;-68
2023/04/29 02:22:28;;;;;;;22.05;17.52;;;;;;;10.76;87.03;100368.28;7396085;19;20007;-69
2023/04/29 02:24:57;;;;;;;19.48;17.27;;;;;;;10.70;87.55;100363.25;7396659;19;20035;-69
2023/04/29 02:27:26;;;;;;;22.50;18.58;;;;;;;10.63;88.86;100363.44;7396151;19;20011;-68
2023/04/29 02:29:57;;;;;;;21.30;19.17;;;;;;;10.52;90.47;100359.34;7394820;19;20476;-72
2023/04/29 02:32:25;;;;;;;23.17;19.45;;;;;;;10.42;91.74;100365.75;7395078;19;20031;-68
2023/04/29 02:34:54;;;;;;;25.27;21.08;;;;;;;10.33;92.19;100360.75;7395493;19;20077;-68
2023/04/29 02:37:22;;;;;;;28.85;22.52;;;;;;;10.25;92.96;100364.41;7395634;19;20027;-68
2023/04/29 02:39:51;;;;;;;24.98;22.02;;;;;;;10.20;93.46;100368.91;7395781;19;20019;-68
2023/04/29 02:42:19;;;;;;;26.60;22.55;;;;;;;10.14;93.64;100363.84;7395627;19;20006;-68
2023/04/29 02:44:48;;;;;;;25.48;22.38;;;;;;;10.11;94.36;100361.31;7395656;19;20018;-69
2023/04/29 02:47:19;;;;;;;26.30;22.02;;;;;;;10.08;94.54;100361.38;7395942;19;20018;-68
2023/04/29 02:49:48;;;;;;;29.42;22.08;;;;;;;10.06;94.87;100371.03;7396339;19;20022;-68
2023/04/29 02:52:16;;;;;;;28.60;22.70;;;;;;;10.03;95.30;100365.88;7395787;19;20022;-68
2023/04/29 02:54:45;;;;;;;29.80;23.55;;;;;;;10.01;95.65;100367.66;7395661;19;20014;-68
2023/04/29 02:57:13;;;;;;;29.88;24.00;;;;;;;9.98;95.82;100367.75;7395232;19;20474;-68
2023/04/29 02:59:43;;;;;;;30.27;24.23;;;;;;;9.97;96.00;100366.03;7393866;19;20018;-68
2023/04/29 03:02:11;;;;;;;30.10;24.45;;;;;;;9.96;96.51;100367.78;7393954;19;20013;-68
2023/04/29 03:04:42;;;;;;;32.05;24.63;;;;;;;9.95;96.78;100361.69;7393187;19;20010;-68
2023/04/29 03:07:11;;;;;;;32.10;24.52;;;;;;;9.95;96.82;100372.16;7395670;19;20019;-68
2023/04/29 03:09:39;;;;;;;33.45;25.50;;;;;;;9.94;97.19;100364.34;7393030;19;20007;-68
2023/04/29 03:12:08;;;;;;;36.30;27.10;;;;;;;9.94;97.36;100364.34;7395180;19;20014;-68
2023/04/29 03:14:37;;;;;;;33.53;25.67;;;;;;;9.92;97.96;100361.78;7393061;19;20018;-68
2023/04/29 03:17:05;;;;;;;31.58;25.77;;;;;;;9.91;97.91;100360.03;7395083;19;20018;-67
2023/04/29 03:19:34;;;;;;;34.72;27.65;;;;;;;9.89;98.00;100355.75;7393231;19;20078;-68
2023/04/29 03:22:07;;;;;;;34.65;26.98;;;;;;;9.87;98.25;100350.53;7395030;19;20015;-68
2023/04/29 03:24:35;;;;;;;35.65;26.88;;;;;;;9.88;98.48;100356.63;7392943;19;20042;-68
2023/04/29 03:27:04;;;;;;;35.33;27.33;;;;;;;9.86;98.51;100345.34;7394812;19;20022;-68
2023/04/29 03:29:33;;;;;;;34.72;27.88;;;;;;;9.84;99.05;100344.53;7394400;19;20011;-67
2023/04/29 03:32:01;;;;;;;36.28;29.02;;;;;;;9.80;99.07;100340.25;7394478;19;20028;-68
2023/04/29 03:34:30;;;;;;;38.80;29.30;;;;;;;9.80;99.04;100343.72;7392656;19;20078;-67
2023/04/29 03:37:00;;;;;;;39.20;30.25;;;;;;;9.79;99.38;100355.09;7394514;19;20038;-68
2023/04/29 03:39:31;;;;;;;40.58;29.80;;;;;;;9.78;99.62;100353.38;7392918;19;20103;-68
2023/04/29 03:42:00;;;;;;;39.85;30.30;;;;;;;9.78;100.00;100354.25;7392934;19;20018;-68
2023/04/29 03:44:28;;;;;;;43.20;32.80;;;;;;;9.76;100.00;100348.19;7392064;19;20035;-68
2023/04/29 03:46:57;;;;;;;40.33;30.67;;;;;;;9.76;100.00;100352.56;7397073;19;20085;-68
2023/04/29 03:49:25;;;;;;;43.85;31.95;;;;;;;9.76;100.00;100349.94;7401831;19;20094;-68
2023/04/29 03:51:54;;;;;;;41.90;31.17;;;;;;;9.76;100.00;100345.56;7401667;19;20100;-68
2023/04/29 03:54:22;;;;;;;45.72;31.48;;;;;;;9.78;100.00;100351.63;7398795;19;20018;-68
2023/04/29 03:56:53;;;;;;;44.10;32.38;;;;;;;9.79;100.00;100355.09;7401123;19;20015;-68
2023/04/29 03:59:22;;;;;;;44.60;31.65;;;;;;;9.81;100.00;100352.44;7400033;19;20018;-69
2023/04/29 04:01:52;;;;;;;46.70;34.03;;;;;;;9.82;100.00;100354.16;7401238;19;20031;-68
2023/04/29 04:04:21;;;;;;;47.40;34.13;;;;;;;9.81;100.00;100352.44;7398899;19;20022;-68
2023/04/29 04:06:50;;;;;;;45.42;34.33;;;;;;;9.82;100.00;100352.44;7400742;19;20082;-69
2023/04/29 04:09:19;;;;;;;46.50;34.50;;;;;;;9.83;100.00;100348.91;7400008;19;20007;-69
2023/04/29 04:11:48;;;;;;;50.05;35.20;;;;;;;9.84;100.00;100350.59;7398431;19;20010;-69
2023/04/29 04:14:19;;;;;;;46.45;32.30;;;;;;;9.86;100.00;100356.69;7397889;19;20066;-67
2023/04/29 04:16:49;;;;;;;49.63;34.45;;;;;;;9.88;100.00;100367.13;7401391;19;20066;-68
2023/04/29 04:19:25;;;;;;;47.40;34.25;;;;;;;9.90;100.00;100365.34;7399143;19;20041;-69
2023/04/29 04:21:54;;;;;;;49.92;33.97;;;;;;;9.91;100.00;100365.28;7400705;19;20470;-67
2023/04/29 04:24:23;;;;;;;54.97;34.72;;;;;;;9.94;100.00;100364.34;7397812;19;20018;-67
2023/04/29 04:26:51;;;;;;;45.95;34.28;;;;;;;9.96;100.00;100362.56;7400141;19;20505;-67
2023/04/29 04:29:22;;;;;;;43.30;32.95;;;;;;;9.98;100.00;100362.50;7400143;19;20446;-68
2023/04/29 04:31:50;;;;;;;47.60;35.05;;;;;;;10.00;100.00;100368.59;7397586;19;20083;-68
2023/04/29 04:34:19;;;;;;;51.30;35.38;;;;;;;10.03;100.00;100373.72;7397800;19;20365;-67
2023/04/29 04:36:48;;;;;;;47.60;33.67;;;;;;;10.04;100.00;100373.69;7399774;19;20025;-68
2023/04/29 04:39:16;;;;;;;48.63;34.63;;;;;;;10.07;100.00;100370.13;7398206;19;20369;-67
2023/04/29 04:41:44;;;;;;;44.42;33.28;;;;;;;10.10;100.00;100375.31;7399943;19;20078;-68
2023/04/29 04:44:13;;;;;;;52.15;35.28;;;;;;;10.12;100.00;100381.34;7397940;19;20086;-68
2023/04/29 04:46:44;;;;;;;48.78;34.97;;;;;;;10.14;100.00;100376.94;7399799;19;20007;-68
2023/04/29 04:49:12;;;;;;;47.17;33.72;;;;;;;10.18;100.00;100381.19;7400228;19;20091;-68
2023/04/29 04:51:41;;;;;;;47.97;34.70;;;;;;;10.21;100.00;100381.13;7399727;19;20082;-68
2023/04/29 04:54:09;;;;;;;51.75;35.63;;;;;;;10.24;100.00;100378.41;7397695;19;20093;-68
2023/04/29 04:56:37;;;;;;;48.47;36.38;;;;;;;10.28;100.00;100381.81;7399546;19;20553;-68
2023/04/29 04:59:06;;;;;;;49.55;36.60;;;;;;;10.30;100.00;100376.53;7397901;19;20045;-69
2023/04/29 05:01:34;;;;;;;49.15;36.45;;;;;;;10.35;100.00;100379.88;7399396;19;20086;-68
2023/04/29 05:04:12;;;;;;;53.92;37.25;;;;;;;10.38;100.00;100385.09;7397254;19;20541;-68
2023/04/29 05:06:40;;;;;;;50.33;36.10;;;;;;;10.43;100.00;100383.22;7399579;19;20014;-68
2023/04/29 05:09:08;;;;;;;47.42;34.13;;;;;;;10.44;100.00;100382.31;7397575;19;20495;-67
2023/04/29 05:11:37;;;;;;;46.60;35.17;;;;;;;10.48;100.00;100389.19;7398918;19;20078;-68
2023/04/29 05:14:05;;;;;;;48.47;35.15;;;;;;;10.50;100.00;100390.03;7397260;19;20082;-68
2023/04/29 05:16:34;;;;;;;49.28;36.40;;;;;;;10.52;100.00;100379.50;7398763;19;20086;-68
2023/04/29 05:19:05;;;;;;;43.78;33.63;;;;;;;10.54;100.00;100393.41;7397788;19;20025;-68
2023/04/29 05:21:33;;;;;;;46.20;33.80;;;;;;;10.54;100.00;100386.41;7399095;19;20013;-68
2023/04/29 05:24:02;;;;;;;46.15;33.75;;;;;;;10.57;100.00;100393.34;7397099;19;20082;-68
2023/04/29 05:26:30;;;;;;;45.22;33.67;;;;;;;10.58;100.00;100392.44;7398124;19;20086;-68
2023/04/29 05:28:58;;;;;;;43.10;32.25;;;;;;;10.58;100.00;100398.53;7398422;19;20018;-68
2023/04/29 05:31:27;;;;;;;46.38;33.20;;;;;;;10.60;100.00;100398.47;7398359;19;20086;-68
2023/04/29 05:33:56;;;;;;;42.80;33.00;;;;;;;10.62;100.00;100401.94;7396801;19;20014;-68
2023/04/29 05:36:27;;;;;;;41.83;32.38;;;;;;;10.64;100.00;100408.00;7397705;19;20014;-68
2023/04/29 05:38:55;;;;;;;45.03;33.92;;;;;;;10.66;100.00;100402.72;7397116;19;20018;-68
2023/04/29 05:41:24;;;;;;;45.60;33.35;;;;;;;10.68;100.00;100401.78;7397532;19;20411;-68
2023/04/29 05:43:53;;;;;;;49.30;34.53;;;;;;;10.69;100.00;100410.50;7396697;19;20015;-68
2023/04/29 05:46:21;;;;;;;45.40;33.13;;;;;;;10.71;100.00;100401.66;7397739;19;20015;-68
2023/04/29 05:48:50;;;;;;;46.10;34.40;;;;;;;10.73;100.00;100405.13;7396940;19;20091;-68
2023/04/29 05:51:18;;;;;;;46.10;34.15;;;;;;;10.76;100.00;100404.19;7396915;19;20485;-68
2023/04/29 05:53:50;;;;;;;46.42;33.47;;;;;;;10.78;100.00;100406.75;7395805;19;20387;-68
2023/04/29 05:56:18;;;;;;;40.22;30.85;;;;;;;10.82;100.00;100405.78;7397197;19;20015;-69
2023/04/29 05:58:47;;;;;;;46.05;33.80;;;;;;;10.84;100.00;100409.22;7396595;19;20010;-69
2023/04/29 06:01:16;;;;;;;44.20;32.33;;;;;;;10.86;100.00;100410.88;7397284;19;20022;-68
2023/04/29 06:03:45;;;;;;;46.30;32.88;;;;;;;10.89;100.00;100416.06;7396229;19;20038;-68
2023/04/29 06:06:15;;;;;;;42.90;32.30;;;;;;;10.92;100.00;100417.75;7397124;19;20424;-68
2023/04/29 06:08:43;;;;;;;48.53;32.60;;;;;;;10.94;100.00;100421.16;7395872;19;20010;-68
2023/04/29 06:11:14;;;;;;;50.50;31.65;;;;;;;10.97;100.00;100425.47;7397138;19;20026;-68
2023/04/29 06:13:43;;;;;;;43.83;30.17;;;;;;;10.98;100.00;100427.19;7396099;19;20023;-67
2023/04/29 06:16:13;;;;;;;41.22;30.95;;;;;;;11.00;100.00;100434.13;7396778;19;20031;-67
2023/04/29 06:18:41;;;;;;;42.90;30.38;;;;;;;11.01;100.00;100427.13;7396516;19;20073;-68
2023/04/29 06:21:10;;;;;;;44.67;29.27;;;;;;;11.04;100.00;100438.38;7396251;19;20031;-68
2023/04/29 06:23:38;;;;;;;45.47;30.98;;;;;;;11.07;100.00;100434.81;7395798;19;20038;-68
2023/04/29 06:26:06;;;;;;;45.55;30.17;;;;;;;11.08;100.00;100433.88;7396545;19;20081;-68
2023/04/29 06:28:37;;;;;;;42.00;29.10;;;;;;;11.12;100.00;100439.91;7396103;19;20078;-69
2023/04/29 06:31:07;;;;;;;39.22;27.65;;;;;;;11.16;100.00;100446.78;7396176;19;20087;-68
2023/04/29 06:33:35;;;;;;;37.10;26.45;;;;;;;11.19;100.00;100451.97;7395043;19;20581;-69
2023/04/29 06:36:03;;;;;;;39.67;25.73;;;;;;;11.22;100.00;100449.25;7396189;19;20416;-68
2023/04/29 06:38:32;;;;;;;38.08;25.00;;;;;;;11.24;100.00;100450.91;7396310;19;20095;-69
2023/04/29 06:41:01;;;;;;;36.95;24.42;;;;;;;11.25;100.00;100454.44;7394282;19;20082;-68
2023/04/29 06:43:29;;;;;;;33.70;22.45;;;;;;;11.25;100.00;100450.03;7395074;19;20041;-69
2023/04/29 06:46:00;;;;;;;35.30;23.67;;;;;;;11.27;100.00;100460.47;7395902;19;20037;-68
2023/04/29 06:48:29;;;;;;;36.83;23.00;;;;;;;11.31;100.00;100456.00;7395381;19;20549;-68
2023/04/29 06:50:59;;;;;;;36.03;23.65;;;;;;;11.34;100.00;100464.66;7395663;19;20082;-69
2023/04/29 06:53:27;;;;;;;33.15;21.90;;;;;;;11.39;100.00;100459.28;7395133;19;20066;-68
2023/04/29 06:55:56;;;;;;;31.13;21.27;;;;;;;11.39;100.00;100460.13;7395115;19;20372;-68
2023/04/29 06:58:24;;;;;;;31.08;20.83;;;;;;;11.40;100.00;100455.75;7395295;19;20078;-67
2023/04/29 07:00:53;;;;;;;30.10;21.23;;;;;;;11.42;100.00;100459.16;7393384;19;20431;-68
2023/04/29 07:03:24;;;;;;;30.70;21.80;;;;;;;11.41;100.00;100465.31;7393925;19;20089;-68
2023/04/29 07:05:52;;;;;;;29.48;20.05;;;;;;;11.39;100.00;100480.28;7395647;19;20081;-68
2023/04/29 07:08:22;;;;;;;29.65;19.30;;;;;;;11.40;100.00;100474.97;7393150;19;20547;-68
2023/04/29 07:10:56;;;;;;;29.85;19.67;;;;;;;11.40;100.00;100471.50;7392944;19;20011;-68
2023/04/29 07:13:24;;;;;;;25.52;18.23;;;;;;;11.40;99.98;100482.00;7394300;19;20014;-68
2023/04/29 07:15:53;;;;;;;28.75;18.80;;;;;;;11.39;98.97;100475.03;7394935;19;20018;-68
2023/04/29 07:18:24;;;;;;;22.85;16.73;;;;;;;11.37;98.73;100479.47;7392822;19;20094;-68
2023/04/29 07:20:54;;;;;;;26.08;18.23;;;;;;;11.35;98.32;100489.16;7393490;19;20018;-67
2023/04/29 07:23:23;;;;;;;24.10;16.58;;;;;;;11.32;98.88;100491.88;7398976;19;20022;-68
2023/04/29 07:25:51;;;;;;;29.05;18.83;;;;;;;11.29;98.67;100497.22;7401818;19;20378;-68
2023/04/29 07:28:20;;;;;;;26.48;18.52;;;;;;;11.25;99.31;100491.19;7401766;19;20021;-68
2023/04/29 07:30:48;;;;;;;29.30;19.55;;;;;;;11.24;99.72;100508.69;7402335;19;20010;-69
2023/04/29 07:33:17;;;;;;;30.08;20.27;;;;;;;11.20;99.91;100504.44;7400777;19;20014;-68
2023/04/29 07:35:48;;;;;;;37.00;22.50;;;;;;;11.14;100.00;100506.38;7401942;19;20462;-68
2023/04/29 07:38:16;;;;;;;30.10;20.63;;;;;;;11.08;100.00;100513.53;7398866;19;20352;-67
2023/04/29 07:40:45;;;;;;;31.13;20.15;;;;;;;11.05;100.00;100510.13;7399250;19;20095;-68
2023/04/29 07:43:13;;;;;;;29.92;20.08;;;;;;;11.04;100.00;100509.25;7400543;19;20074;-68
2023/04/29 07:45:42;;;;;;;29.77;19.23;;;;;;;11.04;100.00;100511.88;7401088;19;20553;-68
2023/04/29 07:48:10;;;;;;;33.10;19.10;;;;;;;11.05;100.00;100516.22;7401654;19;20081;-68
2023/04/29 07:50:39;;;;;;;31.30;20.17;;;;;;;11.04;100.00;100521.53;7400711;19;20021;-68
2023/04/29 07:53:10;;;;;;;26.70;18.63;;;;;;;11.01;100.00;100527.72;7398305;19;20085;-67
2023/04/29 07:55:39;;;;;;;27.23;18.17;;;;;;;10.97;100.00;100536.59;7401138;19;20390;-68
2023/04/29 07:58:07;;;;;;;30.52;18.48;;;;;;;10.90;100.00;100541.13;7401263;19;20076;-69
2023/04/29 08:00:36;;;;;;;34.95;21.33;;;;;;;10.80;100.00;100544.03;7398759;19;20428;-67
2023/04/29 08:03:04;;;;;;;30.65;19.33;;;;;;;10.76;100.00;100551.13;7399988;19;20019;-67
2023/04/29 08:05:33;;;;;;;31.60;20.05;;;;;;;10.69;100.00;100552.16;7400589;19;20019;-69
2023/04/29 08:08:02;;;;;;;34.83;19.83;;;;;;;10.64;100.00;100551.44;7400358;19;20078;-68
2023/04/29 08:10:33;;;;;;;32.65;20.33;;;;;;;10.58;100.00;100553.31;7398171;19;20090;-69
2023/04/29 08:13:01;;;;;;;34.60;20.15;;;;;;;10.57;100.00;100551.56;7400417;19;20078;-68
2023/04/29 08:15:30;;;;;;;39.70;23.42;;;;;;;10.54;100.00;100563.91;7398134;19;20018;-69
2023/04/29 08:17:58;;;;;;;34.17;20.50;;;;;;;10.48;100.00;100562.31;7400794;19;20086;-69
2023/04/29 08:20:27;;;;;;;36.67;22.50;;;;;;;10.44;100.00;100568.53;7397857;19;20024;-69
2023/04/29 08:22:56;;;;;;;41.17;24.30;;;;;;;10.41;100.00;100579.97;7399542;19;20026;-68
2023/04/29 08:25:25;;;;;;;38.05;23.10;;;;;;;10.38;100.00;100580.03;7400278;19;20086;-69
2023/04/29 08:27:56;;;;;;;42.53;23.95;;;;;;;10.38;100.00;100582.63;7397264;19;20021;-69
2023/04/29 08:30:25;;;;;;;38.97;23.42;;;;;;;10.37;100.00;100590.56;7399663;19;20430;-69
2023/04/29 08:32:53;;;;;;;35.08;21.20;;;;;;;10.37;100.00;100587.94;7398078;19;20018;-68
2023/04/29 08:35:22;;;;;;;34.90;22.42;;;;;;;10.36;100.00;100607.19;7399247;19;20078;-68
2023/04/29 08:37:51;;;;;;;36.65;22.48;;;;;;;10.36;100.00;100602.81;7399808;19;20032;-68
2023/04/29 08:40:19;;;;;;;29.23;20.08;;;;;;;10.35;100.00;100605.41;7398592;19;20011;-68
2023/04/29 08:42:50;;;;;;;26.10;19.02;;;;;;;10.33;100.00;100621.19;7398889;19;20423;-69
2023/04/29 08:45:22;;;;;;;30.77;21.13;;;;;;;10.28;100.00;100621.28;7401253;19;20031;-68
2023/04/29 08:47:51;;;;;;;31.52;22.30;;;;;;;10.27;100.00;100626.56;7399956;19;20078;-69
2023/04/29 08:50:19;;;;;;;33.85;21.13;;;;;;;10.21;100.00;100637.19;7399393;19;20018;-69
2023/04/29 08:52:48;;;;;;;35.30;23.20;;;;;;;10.17;100.00;100639.00;7398980;19;20085;-69
2023/04/29 08:55:17;;;;;;;34.05;21.95;;;;;;;10.14;100.00;100639.09;7398965;19;20544;-67
2023/04/29 08:57:46;;;;;;;37.97;23.08;;;;;;;10.08;100.00;100645.34;7399132;19;20054;-69
2023/04/29 09:00:16;;;;;;;35.97;22.77;;;;;;;10.05;100.00;100658.50;7397347;19;20011;-68
2023/04/29 09:02:51;;;;;;;38.85;24.15;;;;;;;10.02;100.00;100663.81;7397787;19;20089;-69
2023/04/29 09:05:20;;;;;;;38.10;23.58;;;;;;;10.01;100.00;100663.81;7396262;19;20077;-68
2023/04/29 09:07:50;;;;;;;38.22;24.33;;;;;;;10.00;100.00;100664.75;7398299;19;20018;-68
2023/04/29 09:10:19;;;;;;;39.15;24.23;;;;;;;9.98;100.00;100663.91;7396200;19;20074;-68
2023/04/29 09:12:48;;;;;;;38.70;24.88;;;;;;;9.96;100.00;100666.56;7398361;19;20102;-68
2023/04/29 09:15:16;;;;;;;36.25;22.75;;;;;;;9.93;100.00;100672.72;7398343;19;20378;-67
2023/04/29 09:17:49;;;;;;;37.15;24.33;;;;;;;9.92;100.00;100681.47;7398349;19;20086;-69
2023/04/29 09:20:31;;;;;;;40.28;22.60;;;;;;;9.90;100.00;100683.25;7398245;19;20081;-68
2023/04/29 09:23:02;;;;;;;35.92;22.60;;;;;;;9.92;100.00;100691.09;7396488;19;20087;-68
2023/04/29 09:25:31;;;;;;;47.30;27.83;;;;;;;9.90;100.00;100683.25;7397691;19;20014;-71
2023/04/29 09:27:59;;;;;;;40.95;26.60;;;;;;;9.93;100.00;100691.06;7397944;19;20038;-68
2023/04/29 09:30:34;;;;;;;43.35;25.15;;;;;;;9.95;100.00;100702.38;7397975;19;20082;-68
2023/04/29 09:33:09;;;;;;;35.28;23.05;;;;;;;9.97;100.00;100706.72;7396900;19;20024;-68
2023/04/29 09:35:38;;;;;;;43.55;27.30;;;;;;;9.93;100.00;100709.41;7397909;19;20077;-68
2023/04/29 09:38:14;;;;;;;41.13;24.02;;;;;;;9.87;100.00;100716.50;7397860;19;20086;-67
2023/04/29 09:40:43;;;;;;;48.35;24.88;;;;;;;9.85;100.00;100716.56;7396237;19;20019;-68
2023/04/29 09:43:17;;;;;;;41.95;24.00;;;;;;;9.79;100.00;100719.28;7396306;19;20482;-68
2023/04/29 09:45:47;;;;;;;42.95;24.15;;;;;;;9.75;100.00;100726.34;7396409;19;20022;-68
2023/04/29 09:48:18;;;;;;;42.95;24.52;;;;;;;9.73;100.00;100722.91;7397493;19;20078;-68
2023/04/29 09:51:00;;;;;;;47.50;24.05;;;;;;;9.72;100.00;100731.66;7397732;19;20094;-68
2023/04/29 09:53:31;;;;;;;40.60;23.45;;;;;;;9.68;100.00;100739.59;7396701;19;20039;-69
2023/04/29 09:56:00;;;;;;;44.08;24.08;;;;;;;9.62;100.00;100741.44;7396932;19;20011;-68
2023/04/29 09:58:36;;;;;;;40.33;22.02;;;;;;;9.56;100.00;100753.78;7397277;19;20031;-68
2023/04/29 10:01:05;;;;;;;42.22;22.98;;;;;;;9.48;100.00;100756.53;7395847;19;20089;-68
2023/04/29 10:03:37;;;;;;;45.58;24.83;;;;;;;9.42;100.00;100754.00;7395922;19;20025;-68
2023/04/29 10:06:08;;;;;;;45.63;23.88;;;;;;;9.40;100.00;100753.16;7395282;19;20014;-68
2023/04/29 10:08:37;;;;;;;43.30;22.65;;;;;;;9.37;100.00;100754.06;7396206;19;20014;-68
2023/04/29 10:11:14;;;;;;;38.35;21.85;;;;;;;9.35;100.00;100763.72;7394038;19;20368;-69
2023/04/29 10:13:44;;;;;;;45.97;22.63;;;;;;;9.35;100.00;100762.84;7395586;19;20444;-68
2023/04/29 10:16:24;;;;;;;48.00;24.85;;;;;;;9.33;100.00;100783.81;7397151;19;20081;-68
2023/04/29 10:18:58;;;;;;;40.10;23.27;;;;;;;9.33;100.00;100780.34;7396902;19;20022;-68
2023/04/29 10:21:30;;;;;;;41.33;22.88;;;;;;;9.31;100.00;100787.34;7395728;19;20042;-68
2023/04/29 10:24:00;;;;;;;39.88;23.73;;;;;;;9.24;100.00;100776.97;7396014;19;20070;-68
2023/04/29 10:26:30;;;;;;;45.83;26.48;;;;;;;9.26;100.00;100779.56;7397468;19;20019;-69
2023/04/29 10:28:59;;;;;;;50.05;25.25;;;;;;;9.25;100.00;100772.59;7396161;19;20020;-69
2023/04/29 10:31:29;;;;;;;45.38;25.98;;;;;;;9.23;100.00;100788.34;7395546;19;20074;-69
2023/04/29 10:34:00;;;;;;;52.67;25.92;;;;;;;9.23;100.00;100785.72;7394247;19;20035;-69
2023/04/29 10:36:30;;;;;;;51.63;28.10;;;;;;;9.25;100.00;100793.53;7396102;19;20019;-69
2023/04/29 10:39:02;;;;;;;49.97;27.20;;;;;;;9.27;100.00;100803.09;7396276;19;20019;-69
2023/04/29 10:41:36;;;;;;;51.03;26.80;;;;;;;9.29;100.00;100809.19;7394514;19;20014;-69
2023/04/29 10:44:05;;;;;;;47.97;27.40;;;;;;;9.30;100.00;100815.28;7394912;19;20021;-69
2023/04/29 10:46:34;;;;;;;47.88;26.58;;;;;;;9.27;100.00;100807.47;7393651;19;20015;-68
2023/04/29 10:49:06;;;;;;;46.17;26.13;;;;;;;9.26;100.00;100809.25;7395292;19;20021;-68
2023/04/29 10:51:36;;;;;;;49.28;27.27;;;;;;;9.27;100.00;100808.34;7395533;19;20073;-68
2023/04/29 10:54:08;;;;;;;47.03;25.55;;;;;;;9.23;100.00;100814.50;7393486;19;20070;-69
2023/04/29 10:56:45;;;;;;;39.35;24.98;;;;;;;9.21;100.00;100802.34;7393998;19;20014;-69
2023/04/29 10:59:15;;;;;;;44.05;25.83;;;;;;;9.23;100.00;100811.91;7395304;19;20019;-69
2023/04/29 11:01:46;;;;;;;45.75;26.58;;;;;;;9.25;100.00;100828.47;7393835;19;20035;-69
2023/04/29 11:04:18;;;;;;;47.70;28.02;;;;;;;9.25;100.00;100820.59;7393375;19;20014;-69
2023/04/29 11:06:49;;;;;;;50.05;27.77;;;;;;;9.24;100.00;100816.25;7394101;19;20018;-69
2023/04/29 11:09:21;;;;;;;48.33;27.23;;;;;;;9.25;100.00;100820.59;7395324;19;20039;-70
2023/04/29 11:12:05;;;;;;;46.30;27.88;;;;;;;9.29;100.00;100821.44;7394919;19;20023;-68
2023/04/29 11:14:39;;;;;;;47.05;28.75;;;;;;;9.31;100.00;100827.47;7392924;19;20015;-68
2023/04/29 11:17:10;;;;;;;43.67;27.40;;;;;;;9.32;100.00;100837.06;7394562;19;20482;-68
2023/04/29 11:19:43;;;;;;;46.05;27.50;;;;;;;9.35;100.00;100830.94;7395192;19;20019;-68